createdAt,value
2018-03-23T00:00:50.059Z,1007.93
2018-03-23T00:01:50.289Z,1007.90
2018-03-23T00:02:50.166Z,1007.92
2018-03-23T00:03:50.059Z,1007.92
2018-03-23T00:04:50.168Z,1007.90
2018-03-23T00:05:50.133Z,1007.90
2018-03-23T00:06:50.179Z,1007.90
2018-03-23T00:07:50.499Z,1007.91
2018-03-23T00:08:50.178Z,1007.92
2018-03-23T00:10:50.655Z,1007.91
2018-03-23T00:11:50.332Z,1007.91
2018-03-23T00:12:50.385Z,1007.92
2018-03-23T00:13:50.622Z,1007.88
2018-03-23T00:15:50.834Z,1007.87
2018-03-23T00:16:50.502Z,1007.85
2018-03-23T00:18:50.539Z,1007.86
2018-03-23T00:19:50.911Z,1007.82
2018-03-23T00:20:50.666Z,1007.81
2018-03-23T00:21:50.662Z,1007.78
2018-03-23T00:22:50.618Z,1007.78
2018-03-23T00:23:51.158Z,1007.78
2018-03-23T00:24:50.741Z,1007.74
2018-03-23T00:25:51.096Z,1007.76
2018-03-23T00:26:51.225Z,1007.74
2018-03-23T00:27:51.052Z,1007.73
2018-03-23T00:28:50.792Z,1007.72
2018-03-23T00:29:50.914Z,1007.70
2018-03-23T00:30:50.952Z,1007.70
2018-03-23T00:31:51.194Z,1007.70
2018-03-23T00:32:50.920Z,1007.67
2018-03-23T00:33:50.978Z,1007.68
2018-03-23T00:34:51.034Z,1007.68
2018-03-23T00:35:51.481Z,1007.66
2018-03-23T00:36:51.168Z,1007.67
2018-03-23T00:37:51.386Z,1007.65
2018-03-23T00:38:51.079Z,1007.64
2018-03-23T00:39:51.142Z,1007.65
2018-03-23T00:40:51.263Z,1007.66
2018-03-23T00:41:51.251Z,1007.65
2018-03-23T00:42:51.282Z,1007.66
2018-03-23T00:43:51.484Z,1007.65
2018-03-23T00:44:52.055Z,1007.65
2018-03-23T00:45:51.328Z,1007.62
2018-03-23T00:46:51.880Z,1007.62
2018-03-23T00:47:51.391Z,1007.66
2018-03-23T00:48:51.407Z,1007.64
2018-03-23T00:49:51.494Z,1007.63
2018-03-23T00:50:51.897Z,1007.64
2018-03-23T00:51:51.485Z,1007.64
2018-03-23T00:52:51.556Z,1007.61
2018-03-23T00:53:51.624Z,1007.60
2018-03-23T00:55:51.880Z,1007.55
2018-03-23T00:56:53.045Z,1007.59
2018-03-23T00:57:51.661Z,1007.59
2018-03-23T00:58:52.102Z,1007.60
2018-03-23T00:59:51.687Z,1007.55
2018-03-23T01:00:51.750Z,1007.55
2018-03-23T01:01:51.794Z,1007.54
2018-03-23T01:02:52.486Z,1007.56
2018-03-23T01:03:51.843Z,1007.54
2018-03-23T01:04:51.927Z,1007.52
2018-03-23T01:05:52.049Z,1007.48
2018-03-23T01:06:52.060Z,1007.49
2018-03-23T01:07:52.391Z,1007.48
2018-03-23T01:08:52.801Z,1007.48
2018-03-23T01:09:52.011Z,1007.46
2018-03-23T01:10:52.114Z,1007.46
2018-03-23T01:11:52.187Z,1007.42
2018-03-23T01:12:52.132Z,1007.43
2018-03-23T01:13:52.280Z,1007.44
2018-03-23T01:14:52.456Z,1007.42
2018-03-23T01:15:52.648Z,1007.41
2018-03-23T01:16:52.309Z,1007.43
2018-03-23T01:17:52.262Z,1007.42
2018-03-23T01:18:52.306Z,1007.42
2018-03-23T01:19:52.645Z,1007.40
2018-03-23T01:20:52.693Z,1007.40
2018-03-23T01:21:52.466Z,1007.36
2018-03-23T01:22:52.463Z,1007.39
2018-03-23T01:23:52.406Z,1007.38
2018-03-23T01:24:52.469Z,1007.38
2018-03-23T01:25:52.570Z,1007.31
2018-03-23T01:26:52.881Z,1007.31
2018-03-23T01:27:52.662Z,1007.28
2018-03-23T01:28:52.591Z,1007.33
2018-03-23T01:29:52.637Z,1007.27
2018-03-23T01:30:53.365Z,1007.29
2018-03-23T01:31:52.676Z,1007.30
2018-03-23T01:32:53.049Z,1007.28
2018-03-23T01:33:52.755Z,1007.25
2018-03-23T01:34:52.752Z,1007.23
2018-03-23T01:35:53.244Z,1007.21
2018-03-23T01:36:53.144Z,1007.20
2018-03-23T01:37:52.839Z,1007.17
2018-03-23T01:38:53.201Z,1007.18
2018-03-23T01:39:53.242Z,1007.18
2018-03-23T01:40:53.147Z,1007.17
2018-03-23T01:41:53.044Z,1007.14
2018-03-23T01:42:53.030Z,1007.17
2018-03-23T01:43:54.219Z,1007.14
2018-03-23T01:44:53.339Z,1007.12
2018-03-23T01:45:53.119Z,1007.10
2018-03-23T01:46:53.163Z,1007.13
2018-03-23T01:47:53.815Z,1007.06
2018-03-23T01:48:53.259Z,1007.11
2018-03-23T01:49:53.266Z,1007.10
2018-03-23T01:50:53.641Z,1007.06
2018-03-23T01:51:53.369Z,1007.07
2018-03-23T01:52:53.294Z,1007.04
2018-03-23T01:53:53.357Z,1007.04
2018-03-23T01:54:53.474Z,1007.06
2018-03-23T01:55:53.393Z,1007.05
2018-03-23T01:56:53.885Z,1007.03
2018-03-23T01:57:53.459Z,1007.00
2018-03-23T01:58:53.567Z,1006.99
2018-03-23T01:59:53.500Z,1007.00
2018-03-23T02:00:54.489Z,1006.98
2018-03-23T02:01:53.686Z,1006.95
2018-03-23T02:02:54.274Z,1006.98
2018-03-23T02:03:53.637Z,1006.94
2018-03-23T02:04:53.667Z,1006.92
2018-03-23T02:05:53.815Z,1006.96
2018-03-23T02:06:53.732Z,1006.89
2018-03-23T02:07:53.767Z,1006.95
2018-03-23T02:08:54.068Z,1006.94
2018-03-23T02:09:54.170Z,1006.94
2018-03-23T02:10:55.276Z,1006.89
2018-03-23T02:11:53.986Z,1006.88
2018-03-23T02:12:53.929Z,1006.88
2018-03-23T02:13:53.933Z,1006.87
2018-03-23T02:14:54.285Z,1006.82
2018-03-23T02:15:54.022Z,1006.82
2018-03-23T02:16:54.000Z,1006.81
2018-03-23T02:17:54.039Z,1006.79
2018-03-23T02:18:54.087Z,1006.76
2018-03-23T02:19:54.111Z,1006.77
2018-03-23T02:20:54.465Z,1006.73
2018-03-23T02:21:54.149Z,1006.75
2018-03-23T02:22:54.194Z,1006.71
2018-03-23T02:23:54.280Z,1006.70
2018-03-23T02:24:54.319Z,1006.69
2018-03-23T02:25:54.305Z,1006.69
2018-03-23T02:26:54.695Z,1006.68
2018-03-23T02:27:54.325Z,1006.65
2018-03-23T02:30:54.504Z,1006.60
2018-03-23T02:31:54.483Z,1006.61
2018-03-23T02:32:54.877Z,1006.61
2018-03-23T02:33:54.568Z,1006.61
2018-03-23T02:34:54.550Z,1006.59
2018-03-23T02:35:54.588Z,1006.59
2018-03-23T02:37:54.648Z,1006.59
2018-03-23T02:38:55.029Z,1006.58
2018-03-23T02:39:54.704Z,1006.59
2018-03-23T02:40:54.735Z,1006.55
2018-03-23T02:41:54.765Z,1006.59
2018-03-23T02:42:54.800Z,1006.59
2018-03-23T02:43:54.864Z,1006.53
2018-03-23T02:45:55.629Z,1006.56
2018-03-23T02:46:54.932Z,1006.55
2018-03-23T02:47:54.952Z,1006.55
2018-03-23T02:48:54.983Z,1006.56
2018-03-23T02:49:55.008Z,1006.57
2018-03-23T02:50:55.016Z,1006.54
2018-03-23T02:51:55.111Z,1006.54
2018-03-23T02:52:55.417Z,1006.52
2018-03-23T02:53:55.138Z,1006.55
2018-03-23T02:54:55.142Z,1006.57
2018-03-23T02:55:55.181Z,1006.49
2018-03-23T02:56:55.218Z,1006.57
2018-03-23T02:57:55.262Z,1006.55
2018-03-23T02:58:55.611Z,1006.50
2018-03-23T02:59:55.312Z,1006.53
2018-03-23T03:00:55.321Z,1006.52
2018-03-23T03:01:55.374Z,1006.51
2018-03-23T03:02:55.392Z,1006.50
2018-03-23T03:03:55.410Z,1006.47
2018-03-23T03:04:55.743Z,1006.47
2018-03-23T03:05:55.483Z,1006.45
2018-03-23T03:06:55.531Z,1006.46
2018-03-23T03:07:55.529Z,1006.41
2018-03-23T03:08:55.573Z,1006.42
2018-03-23T03:09:55.649Z,1006.36
2018-03-23T03:10:55.962Z,1006.35
2018-03-23T03:11:55.649Z,1006.39
2018-03-23T03:12:55.698Z,1006.38
2018-03-23T03:13:55.711Z,1006.36
2018-03-23T03:14:55.748Z,1006.35
2018-03-23T03:15:55.829Z,1006.34
2018-03-23T03:16:56.125Z,1006.31
2018-03-23T03:17:55.830Z,1006.30
2018-03-23T03:18:55.876Z,1006.31
2018-03-23T03:19:55.888Z,1006.26
2018-03-23T03:20:55.937Z,1006.28
2018-03-23T03:21:55.957Z,1006.30
2018-03-23T03:22:56.289Z,1006.26
2018-03-23T03:23:56.012Z,1006.23
2018-03-23T03:25:56.075Z,1006.23
2018-03-23T03:26:56.166Z,1006.22
2018-03-23T03:27:56.171Z,1006.20
2018-03-23T03:28:56.459Z,1006.21
2018-03-23T03:29:56.195Z,1006.21
2018-03-23T03:30:56.304Z,1006.19
2018-03-23T03:31:56.324Z,1006.18
2018-03-23T03:32:56.310Z,1006.14
2018-03-23T03:33:56.387Z,1006.17
2018-03-23T03:34:56.681Z,1006.16
2018-03-23T03:35:56.420Z,1006.13
2018-03-23T03:36:56.396Z,1006.13
2018-03-23T03:37:56.792Z,1006.16
2018-03-23T03:38:56.478Z,1006.15
2018-03-23T03:39:56.603Z,1006.14
2018-03-23T03:40:56.851Z,1006.11
2018-03-23T03:41:56.559Z,1006.09
2018-03-23T03:43:56.659Z,1006.09
2018-03-23T03:44:56.683Z,1006.09
2018-03-23T03:45:56.668Z,1006.10
2018-03-23T03:46:57.127Z,1006.11
2018-03-23T03:47:56.752Z,1006.11
2018-03-23T03:48:56.828Z,1006.11
2018-03-23T03:49:56.876Z,1006.11
2018-03-23T03:50:56.819Z,1006.06
2018-03-23T03:51:56.850Z,1006.07
2018-03-23T03:52:57.185Z,1006.09
2018-03-23T03:53:56.923Z,1006.06
2018-03-23T03:54:56.941Z,1006.09
2018-03-23T03:55:56.976Z,1006.11
2018-03-23T03:56:57.356Z,1006.08
2018-03-23T03:57:57.388Z,1006.07
2018-03-23T03:58:57.357Z,1006.03
2018-03-23T03:59:57.116Z,1006.05
2018-03-23T04:00:57.124Z,1006.08
2018-03-23T04:01:57.321Z,1006.06
2018-03-23T04:02:57.256Z,1006.06
2018-03-23T04:03:57.218Z,1006.05
2018-03-23T04:04:57.640Z,1006.03
2018-03-23T04:05:57.658Z,1006.06
2018-03-23T04:06:57.362Z,1006.04
2018-03-23T04:07:57.364Z,1006.03
2018-03-23T04:08:57.366Z,1006.04
2018-03-23T04:10:57.732Z,1006.08
2018-03-23T04:12:57.548Z,1006.02
2018-03-23T04:13:57.518Z,1006.03
2018-03-23T04:14:57.545Z,1006.03
2018-03-23T04:15:57.574Z,1006.00
2018-03-23T04:16:57.906Z,1006.02
2018-03-23T04:17:57.678Z,1005.98
2018-03-23T04:18:57.675Z,1005.98
2018-03-23T04:19:57.684Z,1005.96
2018-03-23T04:20:57.774Z,1005.98
2018-03-23T04:21:57.767Z,1006.00
2018-03-23T04:22:58.145Z,1005.99
2018-03-23T04:23:57.804Z,1006.00
2018-03-23T04:24:57.830Z,1005.98
2018-03-23T04:25:57.920Z,1005.99
2018-03-23T04:26:57.941Z,1005.96
2018-03-23T04:27:57.935Z,1005.96
2018-03-23T04:28:58.310Z,1005.94
2018-03-23T04:29:58.020Z,1005.93
2018-03-23T04:30:58.057Z,1005.93
2018-03-23T04:31:58.097Z,1005.93
2018-03-23T04:32:58.087Z,1005.94
2018-03-23T04:33:58.114Z,1005.90
2018-03-23T04:34:58.441Z,1005.93
2018-03-23T04:35:58.188Z,1005.93
2018-03-23T04:36:58.235Z,1005.90
2018-03-23T04:37:58.267Z,1005.89
2018-03-23T04:38:58.273Z,1005.90
2018-03-23T04:39:58.294Z,1005.86
2018-03-23T04:40:58.612Z,1005.86
2018-03-23T04:41:58.346Z,1005.86
2018-03-23T04:42:58.415Z,1005.85
2018-03-23T04:43:58.404Z,1005.85
2018-03-23T04:44:58.451Z,1005.82
2018-03-23T04:45:58.475Z,1005.81
2018-03-23T04:46:58.822Z,1005.79
2018-03-23T04:47:58.890Z,1005.75
2018-03-23T04:48:58.597Z,1005.77
2018-03-23T04:49:58.628Z,1005.75
2018-03-23T04:50:58.715Z,1005.76
2018-03-23T04:51:58.656Z,1005.73
2018-03-23T04:52:58.986Z,1005.72
2018-03-23T04:53:58.725Z,1005.70
2018-03-23T04:54:58.748Z,1005.71
2018-03-23T04:55:58.802Z,1005.69
2018-03-23T04:56:58.847Z,1005.65
2018-03-23T04:57:58.847Z,1005.73
2018-03-23T04:58:59.376Z,1005.65
2018-03-23T04:59:58.899Z,1005.66
2018-03-23T05:00:58.920Z,1005.67
2018-03-23T05:01:58.943Z,1005.62
2018-03-23T05:02:58.996Z,1005.63
2018-03-23T05:03:59.164Z,1005.61
2018-03-23T05:04:59.385Z,1005.60
2018-03-23T05:05:59.099Z,1005.60
2018-03-23T05:06:59.121Z,1005.59
2018-03-23T05:07:59.160Z,1005.55
2018-03-23T05:08:59.223Z,1005.59
2018-03-23T05:09:59.392Z,1005.57
2018-03-23T05:10:59.516Z,1005.61
2018-03-23T05:11:59.251Z,1005.60
2018-03-23T05:12:59.313Z,1005.56
2018-03-23T05:13:59.353Z,1005.61
2018-03-23T05:14:59.421Z,1005.61
2018-03-23T05:15:59.367Z,1005.63
2018-03-23T05:16:59.768Z,1005.59
2018-03-23T05:17:59.464Z,1005.56
2018-03-23T05:18:59.459Z,1005.56
2018-03-23T05:19:59.495Z,1005.52
2018-03-23T05:20:59.538Z,1005.52
2018-03-23T05:21:59.553Z,1005.54
2018-03-23T05:22:59.896Z,1005.57
2018-03-23T05:23:59.626Z,1005.53
2018-03-23T05:24:59.789Z,1005.50
2018-03-23T05:25:59.664Z,1005.46
2018-03-23T05:26:59.880Z,1005.45
2018-03-23T05:27:59.734Z,1005.50
2018-03-23T05:29:00.064Z,1005.50
2018-03-23T05:29:59.797Z,1005.49
2018-03-23T05:30:59.881Z,1005.43
2018-03-23T05:31:59.961Z,1005.40
2018-03-23T05:32:59.883Z,1005.42
2018-03-23T05:33:59.911Z,1005.41
2018-03-23T05:35:00.289Z,1005.41
2018-03-23T05:35:59.969Z,1005.43
2018-03-23T05:37:00.025Z,1005.44
2018-03-23T05:38:00.055Z,1005.42
2018-03-23T05:39:00.080Z,1005.45
2018-03-23T05:40:00.142Z,1005.47
2018-03-23T05:41:00.438Z,1005.43
2018-03-23T05:42:00.146Z,1005.41
2018-03-23T05:43:00.265Z,1005.46
2018-03-23T05:44:00.237Z,1005.44
2018-03-23T05:45:00.253Z,1005.46
2018-03-23T05:46:00.302Z,1005.49
2018-03-23T05:47:00.629Z,1005.48
2018-03-23T05:48:00.404Z,1005.49
2018-03-23T05:49:00.474Z,1005.49
2018-03-23T05:50:01.599Z,1005.52
2018-03-23T05:51:00.651Z,1005.40
2018-03-23T05:52:00.451Z,1005.48
2018-03-23T05:53:00.816Z,1005.47
2018-03-23T05:54:01.335Z,1005.47
2018-03-23T05:55:00.596Z,1005.45
2018-03-23T05:56:00.638Z,1005.43
2018-03-23T05:57:00.694Z,1005.43
2018-03-23T05:58:00.694Z,1005.43
2018-03-23T05:59:01.102Z,1005.44
2018-03-23T06:00:00.991Z,1005.42
2018-03-23T06:01:00.843Z,1005.42
2018-03-23T06:02:00.868Z,1005.39
2018-03-23T06:03:01.980Z,1005.38
2018-03-23T06:04:00.822Z,1005.38
2018-03-23T06:05:01.248Z,1005.37
2018-03-23T06:06:00.944Z,1005.40
2018-03-23T06:07:00.901Z,1005.40
2018-03-23T06:08:01.004Z,1005.37
2018-03-23T06:09:00.955Z,1005.40
2018-03-23T06:10:01.235Z,1005.40
2018-03-23T06:11:01.389Z,1005.41
2018-03-23T06:12:01.173Z,1005.40
2018-03-23T06:13:01.228Z,1005.37
2018-03-23T06:14:01.208Z,1005.37
2018-03-23T06:15:01.142Z,1005.37
2018-03-23T06:16:01.210Z,1005.34
2018-03-23T06:17:01.610Z,1005.39
2018-03-23T06:18:01.330Z,1005.37
2018-03-23T06:19:01.357Z,1005.36
2018-03-23T06:20:01.327Z,1005.37
2018-03-23T06:21:01.397Z,1005.36
2018-03-23T06:22:01.402Z,1005.36
2018-03-23T06:23:01.703Z,1005.40
2018-03-23T06:24:01.459Z,1005.36
2018-03-23T06:25:01.497Z,1005.38
2018-03-23T06:26:01.589Z,1005.38
2018-03-23T06:27:01.530Z,1005.37
2018-03-23T06:28:01.586Z,1005.35
2018-03-23T06:29:01.950Z,1005.35
2018-03-23T06:30:01.827Z,1005.37
2018-03-23T06:31:01.690Z,1005.38
2018-03-23T06:32:01.661Z,1005.33
2018-03-23T06:33:01.745Z,1005.40
2018-03-23T06:34:01.724Z,1005.36
2018-03-23T06:35:02.055Z,1005.36
2018-03-23T06:36:01.855Z,1005.36
2018-03-23T06:37:01.817Z,1005.38
2018-03-23T06:38:01.879Z,1005.38
2018-03-23T06:39:01.895Z,1005.32
2018-03-23T06:40:01.882Z,1005.33
2018-03-23T06:41:02.259Z,1005.33
2018-03-23T06:42:01.976Z,1005.28
2018-03-23T06:43:02.049Z,1005.28
2018-03-23T06:44:02.034Z,1005.29
2018-03-23T06:45:02.150Z,1005.29
2018-03-23T06:46:02.182Z,1005.27
2018-03-23T06:47:02.484Z,1005.25
2018-03-23T06:48:02.195Z,1005.27
2018-03-23T06:49:02.267Z,1005.20
2018-03-23T06:50:02.279Z,1005.23
2018-03-23T06:51:02.326Z,1005.27
2018-03-23T06:52:02.266Z,1005.20
2018-03-23T06:53:02.622Z,1005.27
2018-03-23T06:54:02.385Z,1005.25
2018-03-23T06:55:02.436Z,1005.23
2018-03-23T06:56:02.412Z,1005.25
2018-03-23T06:57:02.461Z,1005.28
2018-03-23T06:58:02.471Z,1005.25
2018-03-23T06:59:02.851Z,1005.26
2018-03-23T07:00:02.531Z,1005.23
2018-03-23T07:01:02.724Z,1005.24
2018-03-23T07:02:02.600Z,1005.21
2018-03-23T07:03:02.594Z,1005.28
2018-03-23T07:04:02.736Z,1005.26
2018-03-23T07:05:02.945Z,1005.28
2018-03-23T07:06:02.716Z,1005.24
2018-03-23T07:07:02.791Z,1005.18
2018-03-23T07:08:02.759Z,1005.24
2018-03-23T07:09:02.822Z,1005.20
2018-03-23T07:10:02.834Z,1005.24
2018-03-23T07:11:03.379Z,1005.21
2018-03-23T07:12:02.930Z,1005.15
2018-03-23T07:13:03.178Z,1005.22
2018-03-23T07:14:02.901Z,1005.19
2018-03-23T07:15:03.003Z,1005.18
2018-03-23T07:16:02.970Z,1005.17
2018-03-23T07:17:03.399Z,1005.18
2018-03-23T07:18:03.111Z,1005.14
2018-03-23T07:19:03.152Z,1005.18
2018-03-23T07:20:03.107Z,1005.18
2018-03-23T07:21:05.274Z,1005.17
2018-03-23T07:22:03.140Z,1005.20
2018-03-23T07:23:03.700Z,1005.25
2018-03-23T07:24:03.276Z,1005.26
2018-03-23T07:25:03.238Z,1005.21
2018-03-23T07:26:03.352Z,1005.23
2018-03-23T07:27:03.392Z,1005.26
2018-03-23T07:28:03.419Z,1005.23
2018-03-23T07:29:03.704Z,1005.25
2018-03-23T07:30:03.455Z,1005.25
2018-03-23T07:31:03.482Z,1005.24
2018-03-23T07:32:03.487Z,1005.25
2018-03-23T07:33:04.064Z,1005.23
2018-03-23T07:34:03.595Z,1005.21
2018-03-23T07:35:03.903Z,1005.23
2018-03-23T07:36:03.639Z,1005.19
2018-03-23T07:37:03.716Z,1005.22
2018-03-23T07:38:03.903Z,1005.22
2018-03-23T07:39:03.710Z,1005.21
2018-03-23T07:40:03.756Z,1005.21
2018-03-23T07:41:04.060Z,1005.17
2018-03-23T07:42:03.790Z,1005.19
2018-03-23T07:43:03.918Z,1005.17
2018-03-23T07:44:03.917Z,1005.15
2018-03-23T07:45:03.874Z,1005.15
2018-03-23T07:46:04.440Z,1005.11
2018-03-23T07:47:04.315Z,1005.15
2018-03-23T07:48:03.997Z,1005.14
2018-03-23T07:49:04.013Z,1005.13
2018-03-23T07:50:04.085Z,1005.08
2018-03-23T07:51:04.070Z,1005.05
2018-03-23T07:52:04.150Z,1005.05
2018-03-23T07:53:04.472Z,1005.06
2018-03-23T07:54:06.498Z,1005.05
2018-03-23T07:55:04.155Z,1005.03
2018-03-23T07:56:05.452Z,1005.02
2018-03-23T07:57:04.317Z,1005.01
2018-03-23T07:58:04.248Z,1005.04
2018-03-23T07:59:04.646Z,1005.01
2018-03-23T08:00:04.308Z,1005.02
2018-03-23T08:01:04.484Z,1005.02
2018-03-23T08:02:04.499Z,1004.97
2018-03-23T08:03:04.412Z,1005.03
2018-03-23T08:04:04.433Z,1004.96
2018-03-23T08:05:04.823Z,1004.99
2018-03-23T08:06:04.492Z,1004.94
2018-03-23T08:07:04.521Z,1004.94
2018-03-23T08:08:04.684Z,1004.92
2018-03-23T08:09:04.596Z,1004.94
2018-03-23T08:10:04.650Z,1004.91
2018-03-23T08:11:05.043Z,1004.96
2018-03-23T08:12:04.721Z,1004.94
2018-03-23T08:13:04.704Z,1004.92
2018-03-23T08:14:05.031Z,1004.92
2018-03-23T08:15:04.846Z,1004.90
2018-03-23T08:16:04.817Z,1004.89
2018-03-23T08:17:05.118Z,1004.87
2018-03-23T08:18:04.915Z,1004.87
2018-03-23T08:19:05.029Z,1004.86
2018-03-23T08:20:04.939Z,1004.86
2018-03-23T08:21:04.955Z,1004.82
2018-03-23T08:22:05.036Z,1004.80
2018-03-23T08:23:05.431Z,1004.84
2018-03-23T08:24:05.121Z,1004.82
2018-03-23T08:25:05.098Z,1004.84
2018-03-23T08:26:05.217Z,1004.83
2018-03-23T08:27:05.124Z,1004.86
2018-03-23T08:28:05.252Z,1004.80
2018-03-23T08:29:05.498Z,1004.83
2018-03-23T08:30:05.313Z,1004.77
2018-03-23T08:31:05.298Z,1004.74
2018-03-23T08:32:05.304Z,1004.76
2018-03-23T08:33:05.358Z,1004.75
2018-03-23T08:34:05.386Z,1004.72
2018-03-23T08:35:05.661Z,1004.68
2018-03-23T08:36:05.448Z,1004.68
2018-03-23T08:37:05.439Z,1004.69
2018-03-23T08:38:05.512Z,1004.64
2018-03-23T08:39:05.554Z,1004.67
2018-03-23T08:40:05.605Z,1004.69
2018-03-23T08:41:05.888Z,1004.66
2018-03-23T08:42:05.617Z,1004.61
2018-03-23T08:43:05.638Z,1004.62
2018-03-23T08:44:05.678Z,1004.60
2018-03-23T08:45:05.794Z,1004.55
2018-03-23T08:46:05.788Z,1004.56
2018-03-23T08:47:06.045Z,1004.60
2018-03-23T08:48:05.970Z,1004.56
2018-03-23T08:49:05.840Z,1004.54
2018-03-23T08:50:05.896Z,1004.58
2018-03-23T08:51:05.850Z,1004.58
2018-03-23T08:52:05.903Z,1004.57
2018-03-23T08:53:06.252Z,1004.57
2018-03-23T08:54:06.032Z,1004.62
2018-03-23T08:55:06.231Z,1004.60
2018-03-23T08:56:06.131Z,1004.58
2018-03-23T08:57:06.087Z,1004.59
2018-03-23T08:58:06.126Z,1004.61
2018-03-23T08:59:06.451Z,1004.59
2018-03-23T09:00:06.142Z,1004.59
2018-03-23T09:01:06.231Z,1004.60
2018-03-23T09:02:06.258Z,1004.57
2018-03-23T09:03:06.261Z,1004.56
2018-03-23T09:04:06.332Z,1004.58
2018-03-23T09:05:06.673Z,1004.56
2018-03-23T09:06:06.390Z,1004.58
2018-03-23T09:07:06.399Z,1004.57
2018-03-23T09:08:06.398Z,1004.54
2018-03-23T09:09:06.640Z,1004.55
2018-03-23T09:10:06.473Z,1004.54
2018-03-23T09:11:06.802Z,1004.49
2018-03-23T09:12:07.800Z,1004.48
2018-03-23T09:13:06.540Z,1004.51
2018-03-23T09:14:06.614Z,1004.46
2018-03-23T09:15:06.636Z,1004.44
2018-03-23T09:16:06.680Z,1004.44
2018-03-23T09:17:07.012Z,1004.39
2018-03-23T09:18:07.314Z,1004.39
2018-03-23T09:19:06.758Z,1004.43
2018-03-23T09:20:07.001Z,1004.37
2018-03-23T09:21:06.870Z,1004.36
2018-03-23T09:22:06.820Z,1004.32
2018-03-23T09:23:07.187Z,1004.32
2018-03-23T09:24:07.038Z,1004.30
2018-03-23T09:25:07.050Z,1004.28
2018-03-23T09:26:06.963Z,1004.29
2018-03-23T09:27:06.980Z,1004.26
2018-03-23T09:28:07.033Z,1004.23
2018-03-23T09:29:07.341Z,1004.21
2018-03-23T09:30:07.072Z,1004.20
2018-03-23T09:31:07.145Z,1004.18
2018-03-23T09:32:07.347Z,1004.17
2018-03-23T09:33:07.233Z,1004.16
2018-03-23T09:34:07.417Z,1004.15
2018-03-23T09:35:07.575Z,1004.16
2018-03-23T09:36:07.413Z,1004.14
2018-03-23T09:37:07.327Z,1004.13
2018-03-23T09:38:07.523Z,1004.15
2018-03-23T09:39:07.369Z,1004.13
2018-03-23T09:40:07.442Z,1004.10
2018-03-23T09:41:07.796Z,1004.12
2018-03-23T09:42:07.575Z,1004.10
2018-03-23T09:43:07.630Z,1004.08
2018-03-23T09:44:07.614Z,1004.06
2018-03-23T09:45:07.617Z,1004.08
2018-03-23T09:46:07.577Z,1004.07
2018-03-23T09:47:07.907Z,1004.06
2018-03-23T09:48:07.754Z,1004.04
2018-03-23T09:49:07.679Z,1004.04
2018-03-23T09:50:07.763Z,1004.04
2018-03-23T09:51:07.737Z,1004.01
2018-03-23T09:52:07.836Z,1004.00
2018-03-23T09:53:08.080Z,1003.94
2018-03-23T09:54:07.850Z,1003.94
2018-03-23T09:55:07.837Z,1003.95
2018-03-23T09:56:07.893Z,1003.91
2018-03-23T09:57:08.009Z,1003.88
2018-03-23T09:58:07.966Z,1003.88
2018-03-23T09:59:08.317Z,1003.87
2018-03-23T10:00:08.112Z,1003.85
2018-03-23T10:01:08.057Z,1003.81
2018-03-23T10:02:08.082Z,1003.84
2018-03-23T10:03:08.095Z,1003.84
2018-03-23T10:04:08.356Z,1003.77
2018-03-23T10:05:08.553Z,1003.77
2018-03-23T10:06:08.455Z,1003.74
2018-03-23T10:07:08.248Z,1003.78
2018-03-23T10:08:08.533Z,1003.74
2018-03-23T10:09:08.343Z,1003.74
2018-03-23T10:10:08.346Z,1003.77
2018-03-23T10:11:08.689Z,1003.73
2018-03-23T10:12:08.393Z,1003.74
2018-03-23T10:13:08.448Z,1003.72
2018-03-23T10:14:08.588Z,1003.73
2018-03-23T10:15:08.467Z,1003.72
2018-03-23T10:16:08.716Z,1003.70
2018-03-23T10:17:08.939Z,1003.67
2018-03-23T10:18:08.634Z,1003.63
2018-03-23T10:19:08.668Z,1003.63
2018-03-23T10:20:09.152Z,1003.61
2018-03-23T10:21:08.864Z,1003.61
2018-03-23T10:22:08.855Z,1003.62
2018-03-23T10:23:09.098Z,1003.60
2018-03-23T10:24:08.836Z,1003.57
2018-03-23T10:25:08.884Z,1003.58
2018-03-23T10:26:08.954Z,1003.56
2018-03-23T10:27:08.941Z,1003.53
2018-03-23T10:28:08.950Z,1003.52
2018-03-23T10:29:09.357Z,1003.54
2018-03-23T10:30:09.004Z,1003.54
2018-03-23T10:31:08.996Z,1003.49
2018-03-23T10:32:09.042Z,1003.55
2018-03-23T10:33:09.114Z,1003.54
2018-03-23T10:34:09.173Z,1003.49
2018-03-23T10:35:09.475Z,1003.49
2018-03-23T10:36:09.223Z,1003.46
2018-03-23T10:37:09.197Z,1003.47
2018-03-23T10:38:09.272Z,1003.43
2018-03-23T10:39:09.377Z,1003.41
2018-03-23T10:40:09.380Z,1003.40
2018-03-23T10:41:09.817Z,1003.38
2018-03-23T10:42:09.427Z,1003.39
2018-03-23T10:43:09.412Z,1003.35
2018-03-23T10:44:09.531Z,1003.33
2018-03-23T10:45:09.795Z,1003.32
2018-03-23T10:46:09.574Z,1003.31
2018-03-23T10:47:09.857Z,1003.30
2018-03-23T10:48:09.567Z,1003.25
2018-03-23T10:49:09.599Z,1003.26
2018-03-23T10:50:09.721Z,1003.26
2018-03-23T10:51:09.710Z,1003.28
2018-03-23T10:52:10.008Z,1003.28
2018-03-23T10:53:10.023Z,1003.27
2018-03-23T10:54:09.778Z,1003.29
2018-03-23T10:55:10.141Z,1003.25
2018-03-23T10:56:10.026Z,1003.24
2018-03-23T10:57:09.823Z,1003.21
2018-03-23T10:58:09.850Z,1003.19
2018-03-23T10:59:10.210Z,1003.17
2018-03-23T11:00:09.943Z,1003.16
2018-03-23T11:01:10.095Z,1003.15
2018-03-23T11:02:09.956Z,1003.17
2018-03-23T11:03:10.095Z,1003.11
2018-03-23T11:04:10.064Z,1003.09
2018-03-23T11:05:10.414Z,1003.11
2018-03-23T11:06:10.155Z,1003.14
2018-03-23T11:07:10.271Z,1003.09
2018-03-23T11:08:10.238Z,1003.06
2018-03-23T11:09:10.290Z,1003.06
2018-03-23T11:10:10.314Z,1003.07
2018-03-23T11:11:10.663Z,1003.06
2018-03-23T11:12:10.342Z,1003.04
2018-03-23T11:13:10.403Z,1003.05
2018-03-23T11:14:10.447Z,1003.02
2018-03-23T11:15:10.439Z,1003.00
2018-03-23T11:16:10.418Z,1003.00
2018-03-23T11:17:10.741Z,1003.00
2018-03-23T11:18:10.558Z,1003.00
2018-03-23T11:19:10.569Z,1002.94
2018-03-23T11:20:10.569Z,1002.98
2018-03-23T11:21:10.709Z,1002.93
2018-03-23T11:22:10.615Z,1002.93
2018-03-23T11:23:10.906Z,1002.91
2018-03-23T11:24:10.691Z,1002.89
2018-03-23T11:25:10.819Z,1002.93
2018-03-23T11:26:10.753Z,1002.87
2018-03-23T11:27:10.805Z,1002.82
2018-03-23T11:28:10.846Z,1002.82
2018-03-23T11:29:11.227Z,1002.77
2018-03-23T11:30:10.902Z,1002.76
2018-03-23T11:31:10.939Z,1002.78
2018-03-23T11:32:10.935Z,1002.73
2018-03-23T11:33:11.036Z,1002.71
2018-03-23T11:34:10.978Z,1002.69
2018-03-23T11:35:11.334Z,1002.69
2018-03-23T11:36:11.062Z,1002.66
2018-03-23T11:37:11.088Z,1002.67
2018-03-23T11:38:11.204Z,1002.69
2018-03-23T11:39:11.273Z,1002.62
2018-03-23T11:40:11.357Z,1002.66
2018-03-23T11:41:11.799Z,1002.64
2018-03-23T11:42:11.231Z,1002.64
2018-03-23T11:43:11.261Z,1002.61
2018-03-23T11:44:11.280Z,1002.58
2018-03-23T11:45:11.342Z,1002.57
2018-03-23T11:46:11.339Z,1002.54
2018-03-23T11:47:11.714Z,1002.54
2018-03-23T11:48:11.501Z,1002.52
2018-03-23T11:49:11.464Z,1002.45
2018-03-23T11:50:11.487Z,1002.46
2018-03-23T11:51:11.648Z,1002.42
2018-03-23T11:52:11.538Z,1002.43
2018-03-23T11:53:11.946Z,1002.40
2018-03-23T11:54:11.609Z,1002.43
2018-03-23T11:55:11.661Z,1002.43
2018-03-23T11:56:11.676Z,1002.46
2018-03-23T11:57:11.682Z,1002.46
2018-03-23T11:58:11.787Z,1002.46
2018-03-23T11:59:12.038Z,1002.47
2018-03-23T12:00:11.835Z,1002.46
2018-03-23T12:01:11.817Z,1002.41
2018-03-23T12:02:11.875Z,1002.40
2018-03-23T12:03:12.298Z,1002.34
2018-03-23T12:04:11.998Z,1002.34
2018-03-23T12:05:12.281Z,1002.32
2018-03-23T12:06:11.952Z,1002.28
2018-03-23T12:07:12.031Z,1002.30
2018-03-23T12:08:12.092Z,1002.30
2018-03-23T12:09:12.042Z,1002.26
2018-03-23T12:10:12.113Z,1002.27
2018-03-23T12:11:12.250Z,1002.27
2018-03-23T12:12:12.168Z,1002.26
2018-03-23T12:13:13.742Z,1002.27
2018-03-23T12:14:12.249Z,1002.22
2018-03-23T12:15:12.277Z,1002.21
2018-03-23T12:16:12.589Z,1002.22
2018-03-23T12:17:12.921Z,1002.23
2018-03-23T12:18:12.431Z,1002.19